CYDN

Dauphin Barker Airport

Dauphin, Manitoba, Canada
METAR CYDN 191100Z AUTO 28009KT 9SM CLR 06/00 A2984 RMK SLP112
Observed Flight Rules
Oct-19 @ 11:00 UTC (9 hours ago) Visual Flight Rules
Wind Visibility Clouds
280° at 9 knots 9 miles
  • Clear skies
Temperatures Readings
Current 6°C / 43°F
Dewpoint 0°C / 32°F
Humidity 66%
Altimeter 29.84" Hg
Pressure 1011.2 hPa
Elevation 305
METAR CYDN 191100Z AUTO 28009KT 9SM CLR 06/00 A2984 RMK SLP112
Observed Flight Rules
Oct-19 @ 11:00 UTC
(9 hours ago)
VFR
Wind Visibility
280° at 9 knots 9 miles
Clouds
  • Clear skies
Temperature Dewpoint
6°C / 43°F 0°C / 32°F
Humidity Altimeter Pressure
66% 29.84" Hg 1011.2 hPa